sensor_id;sensor_type;location;lat;lon;timestamp;pressure;altitude;pressure_sealevel;temperature;humidity
10460;BME280;54412;51.206;6.888;2022-11-15T00:00:51;100241.03;;;11.75;77.19
10460;BME280;54412;51.206;6.888;2022-11-15T00:03:20;100234.34;;;11.70;77.67
10460;BME280;54412;51.206;6.888;2022-11-15T00:05:47;100233.88;;;11.77;77.78
10460;BME280;54412;51.206;6.888;2022-11-15T00:08:13;100235.09;;;11.72;78.06
10460;BME280;54412;51.206;6.888;2022-11-15T00:10:39;100229.72;;;11.73;77.88
10460;BME280;54412;51.206;6.888;2022-11-15T00:13:10;100221.44;;;11.79;77.68
10460;BME280;54412;51.206;6.888;2022-11-15T00:15:38;100226.06;;;11.76;78.35
10460;BME280;54412;51.206;6.888;2022-11-15T00:18:06;100228.22;;;11.83;77.93
10460;BME280;54412;51.206;6.888;2022-11-15T00:20:34;100236.16;;;11.83;78.45
10460;BME280;54412;51.206;6.888;2022-11-15T00:22:59;100235.41;;;11.95;78.17
10460;BME280;54412;51.206;6.888;2022-11-15T00:25:25;100239.72;;;11.96;78.16
10460;BME280;54412;51.206;6.888;2022-11-15T00:27:55;100227.66;;;11.92;78.45
10460;BME280;54412;51.206;6.888;2022-11-15T00:30:21;100228.22;;;11.97;78.74
10460;BME280;54412;51.206;6.888;2022-11-15T00:32:46;100228.31;;;12.10;77.94
10460;BME280;54412;51.206;6.888;2022-11-15T00:35:12;100233.41;;;11.99;78.61
10460;BME280;54412;51.206;6.888;2022-11-15T00:37:38;100230.66;;;12.00;78.72
10460;BME280;54412;51.206;6.888;2022-11-15T00:40:04;100238.91;;;11.96;78.54
10460;BME280;54412;51.206;6.888;2022-11-15T00:42:29;100225.75;;;12.08;78.84
10460;BME280;54412;51.206;6.888;2022-11-15T00:44:55;100232.38;;;12.15;78.78
10460;BME280;54412;51.206;6.888;2022-11-15T00:47:21;100234.63;;;12.07;79.01
10460;BME280;54412;51.206;6.888;2022-11-15T00:49:46;100236.34;;;12.08;78.86
10460;BME280;54412;51.206;6.888;2022-11-15T00:52:12;100223.47;;;12.16;78.94
10460;BME280;54412;51.206;6.888;2022-11-15T00:54:38;100230.00;;;12.25;78.75
10460;BME280;54412;51.206;6.888;2022-11-15T00:57:03;100227.53;;;12.22;78.65
10460;BME280;54412;51.206;6.888;2022-11-15T00:59:29;100228.56;;;12.33;78.59
10460;BME280;54412;51.206;6.888;2022-11-15T01:01:55;100225.28;;;12.30;78.49
10460;BME280;54412;51.206;6.888;2022-11-15T01:04:20;100227.91;;;12.30;78.61
10460;BME280;54412;51.206;6.888;2022-11-15T01:06:46;100229.50;;;12.32;78.87
10460;BME280;54412;51.206;6.888;2022-11-15T01:09:12;100235.09;;;12.28;79.04
10460;BME280;54412;51.206;6.888;2022-11-15T01:11:39;100226.84;;;12.32;78.85
10460;BME280;54412;51.206;6.888;2022-11-15T01:14:05;100229.88;;;12.40;78.63
10460;BME280;54412;51.206;6.888;2022-11-15T01:16:30;100214.38;;;12.34;79.09
10460;BME280;54412;51.206;6.888;2022-11-15T01:18:58;100219.50;;;12.37;79.11
10460;BME280;54412;51.206;6.888;2022-11-15T01:21:24;100213.22;;;12.52;78.82
10460;BME280;54412;51.206;6.888;2022-11-15T01:23:54;100208.97;;;12.50;78.72
10460;BME280;54412;51.206;6.888;2022-11-15T01:26:21;100211.84;;;12.33;79.38
10460;BME280;54412;51.206;6.888;2022-11-15T01:28:47;100209.41;;;12.30;79.48
10460;BME280;54412;51.206;6.888;2022-11-15T01:31:17;100214.44;;;12.47;78.97
10460;BME280;54412;51.206;6.888;2022-11-15T01:33:43;100218.72;;;12.49;78.85
10460;BME280;54412;51.206;6.888;2022-11-15T01:36:19;100209.38;;;12.44;79.23
10460;BME280;54412;51.206;6.888;2022-11-15T01:38:52;100215.63;;;12.43;79.12
10460;BME280;54412;51.206;6.888;2022-11-15T01:41:25;100204.13;;;12.56;78.77
10460;BME280;54412;51.206;6.888;2022-11-15T01:44:25;100195.66;;;12.51;79.12
10460;BME280;54412;51.206;6.888;2022-11-15T01:46:47;100199.00;;;12.68;78.53
10460;BME280;54412;51.206;6.888;2022-11-15T01:49:19;100200.09;;;12.51;78.97
10460;BME280;54412;51.206;6.888;2022-11-15T01:51:46;100213.03;;;12.55;78.83
10460;BME280;54412;51.206;6.888;2022-11-15T01:54:16;100212.16;;;12.55;78.65
10460;BME280;54412;51.206;6.888;2022-11-15T01:56:57;100193.75;;;12.53;79.26
10460;BME280;54412;51.206;6.888;2022-11-15T01:59:25;100199.75;;;12.43;79.63
10460;BME280;54412;51.206;6.888;2022-11-15T02:01:51;100192.91;;;12.53;79.39
10460;BME280;54412;51.206;6.888;2022-11-15T02:04:28;100189.06;;;12.44;79.71
10460;BME280;54412;51.206;6.888;2022-11-15T02:06:56;100184.88;;;12.54;79.51
10460;BME280;54412;51.206;6.888;2022-11-15T02:09:22;100184.06;;;12.67;78.82
10460;BME280;54412;51.206;6.888;2022-11-15T02:11:49;100179.84;;;12.64;79.02
10460;BME280;54412;51.206;6.888;2022-11-15T02:14:19;100174.53;;;12.64;79.40
10460;BME280;54412;51.206;6.888;2022-11-15T02:19:51;100171.34;;;12.59;79.73
10460;BME280;54412;51.206;6.888;2022-11-15T02:22:46;100165.47;;;12.68;79.34
10460;BME280;54412;51.206;6.888;2022-11-15T02:25:40;100153.28;;;12.66;79.77
10460;BME280;54412;51.206;6.888;2022-11-15T02:31:48;100149.16;;;12.74;79.49
10460;BME280;54412;51.206;6.888;2022-11-15T02:34:57;100154.03;;;12.68;79.72
10460;BME280;54412;51.206;6.888;2022-11-15T02:37:53;100156.44;;;12.71;79.59
10460;BME280;54412;51.206;6.888;2022-11-15T02:40:59;100157.75;;;12.78;79.48
10460;BME280;54412;51.206;6.888;2022-11-15T02:43:45;100154.06;;;12.80;79.25
10460;BME280;54412;51.206;6.888;2022-11-15T02:46:26;100157.47;;;12.95;78.78
10460;BME280;54412;51.206;6.888;2022-11-15T02:49:14;100160.59;;;12.75;79.69
10460;BME280;54412;51.206;6.888;2022-11-15T02:51:45;100153.69;;;12.72;80.22
10460;BME280;54412;51.206;6.888;2022-11-15T02:54:18;100153.41;;;12.77;79.91
10460;BME280;54412;51.206;6.888;2022-11-15T02:56:46;100148.66;;;12.82;79.87
10460;BME280;54412;51.206;6.888;2022-11-15T02:59:53;100149.81;;;12.78;80.02
10460;BME280;54412;51.206;6.888;2022-11-15T03:02:36;100147.03;;;12.79;80.24
10460;BME280;54412;51.206;6.888;2022-11-15T03:05:37;100154.78;;;12.70;80.38
10460;BME280;54412;51.206;6.888;2022-11-15T03:11:03;100152.25;;;12.81;80.31
10460;BME280;54412;51.206;6.888;2022-11-15T03:13:52;100153.72;;;12.85;80.00
10460;BME280;54412;51.206;6.888;2022-11-15T03:16:40;100152.81;;;12.86;80.04
10460;BME280;54412;51.206;6.888;2022-11-15T03:21:48;100144.66;;;12.89;80.00
10460;BME280;54412;51.206;6.888;2022-11-15T03:24:19;100149.19;;;12.87;80.01
10460;BME280;54412;51.206;6.888;2022-11-15T03:26:47;100149.41;;;12.84;80.15
10460;BME280;54412;51.206;6.888;2022-11-15T03:29:22;100150.03;;;12.87;79.75
10460;BME280;54412;51.206;6.888;2022-11-15T03:31:59;100140.31;;;12.88;79.72
10460;BME280;54412;51.206;6.888;2022-11-15T03:35:12;100146.44;;;12.88;79.70
10460;BME280;54412;51.206;6.888;2022-11-15T03:38:07;100139.47;;;12.87;79.70
10460;BME280;54412;51.206;6.888;2022-11-15T03:40:45;100135.03;;;12.88;80.38
10460;BME280;54412;51.206;6.888;2022-11-15T03:46:23;100128.47;;;12.93;79.78
10460;BME280;54412;51.206;6.888;2022-11-15T03:48:56;100129.41;;;12.92;79.96
10460;BME280;54412;51.206;6.888;2022-11-15T03:51:24;100124.97;;;12.93;79.95
10460;BME280;54412;51.206;6.888;2022-11-15T03:53:51;100117.25;;;12.90;80.11
10460;BME280;54412;51.206;6.888;2022-11-15T03:56:17;100134.28;;;12.86;80.28
10460;BME280;54412;51.206;6.888;2022-11-15T03:58:42;100127.59;;;12.80;80.52
10460;BME280;54412;51.206;6.888;2022-11-15T04:01:08;100120.41;;;12.82;80.58
10460;BME280;54412;51.206;6.888;2022-11-15T04:03:33;100113.28;;;12.83;80.49
10460;BME280;54412;51.206;6.888;2022-11-15T04:05:59;100118.03;;;12.78;80.76
10460;BME280;54412;51.206;6.888;2022-11-15T04:08:25;100124.94;;;12.80;80.50
10460;BME280;54412;51.206;6.888;2022-11-15T04:10:51;100114.28;;;12.94;80.21
10460;BME280;54412;51.206;6.888;2022-11-15T04:13:17;100119.94;;;13.02;80.04
10460;BME280;54412;51.206;6.888;2022-11-15T04:15:43;100109.84;;;12.95;80.11
10460;BME280;54412;51.206;6.888;2022-11-15T04:18:08;100114.59;;;12.90;80.25
10460;BME280;54412;51.206;6.888;2022-11-15T04:20:34;100118.59;;;12.95;80.27
10460;BME280;54412;51.206;6.888;2022-11-15T04:23:22;100117.25;;;12.90;80.68
10460;BME280;54412;51.206;6.888;2022-11-15T04:26:11;100115.22;;;12.81;81.53
10460;BME280;54412;51.206;6.888;2022-11-15T04:28:38;100112.97;;;12.75;81.98
10460;BME280;54412;51.206;6.888;2022-11-15T04:31:23;100114.56;;;12.77;82.37
10460;BME280;54412;51.206;6.888;2022-11-15T04:33:48;100113.84;;;12.88;82.30
10460;BME280;54412;51.206;6.888;2022-11-15T04:36:14;100115.75;;;12.86;82.50
10460;BME280;54412;51.206;6.888;2022-11-15T04:38:58;100117.84;;;12.68;83.56
10460;BME280;54412;51.206;6.888;2022-11-15T04:41:24;100114.47;;;12.79;83.54
10460;BME280;54412;51.206;6.888;2022-11-15T04:43:49;100116.16;;;12.80;84.54
10460;BME280;54412;51.206;6.888;2022-11-15T04:46:15;100109.03;;;12.68;85.47
10460;BME280;54412;51.206;6.888;2022-11-15T04:48:41;100101.31;;;12.65;85.56
10460;BME280;54412;51.206;6.888;2022-11-15T04:51:07;100103.88;;;12.79;85.71
10460;BME280;54412;51.206;6.888;2022-11-15T04:53:32;100109.91;;;12.68;85.61
10460;BME280;54412;51.206;6.888;2022-11-15T04:55:58;100112.13;;;12.74;85.98
10460;BME280;54412;51.206;6.888;2022-11-15T04:58:23;100108.97;;;12.82;85.35
10460;BME280;54412;51.206;6.888;2022-11-15T05:00:49;100104.00;;;12.77;85.30
10460;BME280;54412;51.206;6.888;2022-11-15T05:03:15;100102.91;;;12.80;85.00
10460;BME280;54412;51.206;6.888;2022-11-15T05:05:59;100103.66;;;12.82;85.01
10460;BME280;54412;51.206;6.888;2022-11-15T05:08:25;100105.28;;;12.84;84.49
10460;BME280;54412;51.206;6.888;2022-11-15T05:10:51;100105.13;;;12.73;84.93
10460;BME280;54412;51.206;6.888;2022-11-15T05:13:17;100106.63;;;12.77;84.76
10460;BME280;54412;51.206;6.888;2022-11-15T05:15:43;100107.69;;;12.75;84.41
10460;BME280;54412;51.206;6.888;2022-11-15T05:18:09;100108.97;;;12.82;84.39
10460;BME280;54412;51.206;6.888;2022-11-15T05:20:35;100107.28;;;12.93;83.58
10460;BME280;54412;51.206;6.888;2022-11-15T05:23:01;100109.31;;;12.90;83.27
10460;BME280;54412;51.206;6.888;2022-11-15T05:25:27;100100.41;;;12.91;83.39
10460;BME280;54412;51.206;6.888;2022-11-15T05:27:52;100099.13;;;12.84;83.48
10460;BME280;54412;51.206;6.888;2022-11-15T05:30:18;100096.25;;;12.74;83.54
10460;BME280;54412;51.206;6.888;2022-11-15T05:32:44;100095.72;;;12.82;83.43
10460;BME280;54412;51.206;6.888;2022-11-15T05:35:21;100096.69;;;12.81;83.22
10460;BME280;54412;51.206;6.888;2022-11-15T05:37:52;100090.97;;;12.87;83.14
10460;BME280;54412;51.206;6.888;2022-11-15T05:40:18;100095.44;;;12.99;82.52
10460;BME280;54412;51.206;6.888;2022-11-15T05:42:45;100097.41;;;12.83;83.38
10460;BME280;54412;51.206;6.888;2022-11-15T05:45:11;100096.50;;;12.96;82.90
10460;BME280;54412;51.206;6.888;2022-11-15T05:47:39;100092.69;;;12.88;83.05
10460;BME280;54412;51.206;6.888;2022-11-15T05:50:05;100084.09;;;12.84;83.17
10460;BME280;54412;51.206;6.888;2022-11-15T05:52:36;100101.16;;;12.93;82.54
10460;BME280;54412;51.206;6.888;2022-11-15T05:55:04;100102.00;;;12.93;82.43
10460;BME280;54412;51.206;6.888;2022-11-15T05:57:31;100102.81;;;12.94;82.45
10460;BME280;54412;51.206;6.888;2022-11-15T05:59:57;100102.41;;;13.00;82.47
10460;BME280;54412;51.206;6.888;2022-11-15T06:02:23;100105.19;;;12.98;82.23
10460;BME280;54412;51.206;6.888;2022-11-15T06:04:49;100100.50;;;12.89;82.32
10460;BME280;54412;51.206;6.888;2022-11-15T06:07:14;100108.88;;;12.96;82.45
10460;BME280;54412;51.206;6.888;2022-11-15T06:09:40;100105.91;;;12.88;82.25
10460;BME280;54412;51.206;6.888;2022-11-15T06:12:06;100108.97;;;12.94;82.57
10460;BME280;54412;51.206;6.888;2022-11-15T06:14:32;100103.28;;;13.00;82.17
10460;BME280;54412;51.206;6.888;2022-11-15T06:16:57;100107.72;;;13.00;82.26
10460;BME280;54412;51.206;6.888;2022-11-15T06:19:23;100120.56;;;13.06;81.42
10460;BME280;54412;51.206;6.888;2022-11-15T06:21:48;100114.31;;;13.07;81.19
10460;BME280;54412;51.206;6.888;2022-11-15T06:24:14;100119.84;;;13.04;81.66
10460;BME280;54412;51.206;6.888;2022-11-15T06:26:40;100118.88;;;13.05;81.73
10460;BME280;54412;51.206;6.888;2022-11-15T06:29:05;100122.69;;;13.13;81.28
10460;BME280;54412;51.206;6.888;2022-11-15T06:31:31;100118.97;;;13.16;81.22
10460;BME280;54412;51.206;6.888;2022-11-15T06:33:58;100117.59;;;13.23;80.77
10460;BME280;54412;51.206;6.888;2022-11-15T06:36:24;100129.56;;;13.16;80.64
10460;BME280;54412;51.206;6.888;2022-11-15T06:38:49;100131.06;;;13.20;80.83
10460;BME280;54412;51.206;6.888;2022-11-15T06:41:15;100134.25;;;13.12;80.67
10460;BME280;54412;51.206;6.888;2022-11-15T06:43:42;100125.50;;;12.98;81.08
10460;BME280;54412;51.206;6.888;2022-11-15T06:46:08;100131.75;;;12.97;81.16
10460;BME280;54412;51.206;6.888;2022-11-15T06:48:34;100136.66;;;13.03;80.88
10460;BME280;54412;51.206;6.888;2022-11-15T06:51:03;100145.63;;;13.00;80.99
10460;BME280;54412;51.206;6.888;2022-11-15T06:53:30;100140.16;;;13.03;80.73
10460;BME280;54412;51.206;6.888;2022-11-15T06:56:05;100144.78;;;13.00;80.59
10460;BME280;54412;51.206;6.888;2022-11-15T06:58:31;100146.13;;;12.93;80.77
10460;BME280;54412;51.206;6.888;2022-11-15T07:01:05;100158.53;;;12.92;80.63
10460;BME280;54412;51.206;6.888;2022-11-15T07:03:34;100153.44;;;12.89;80.47
10460;BME280;54412;51.206;6.888;2022-11-15T07:06:00;100156.19;;;12.88;80.38
10460;BME280;54412;51.206;6.888;2022-11-15T07:08:28;100167.06;;;12.83;80.08
10460;BME280;54412;51.206;6.888;2022-11-15T07:10:58;100164.53;;;12.82;80.08
10460;BME280;54412;51.206;6.888;2022-11-15T07:13:26;100164.56;;;12.94;79.70
10460;BME280;54412;51.206;6.888;2022-11-15T07:15:52;100171.63;;;12.81;79.94
10460;BME280;54412;51.206;6.888;2022-11-15T07:18:18;100176.28;;;12.90;79.50
10460;BME280;54412;51.206;6.888;2022-11-15T07:20:44;100178.63;;;12.82;79.48
10460;BME280;54412;51.206;6.888;2022-11-15T07:23:10;100174.38;;;12.80;79.61
10460;BME280;54412;51.206;6.888;2022-11-15T07:25:35;100186.88;;;12.90;79.04
10460;BME280;54412;51.206;6.888;2022-11-15T07:28:02;100184.44;;;12.87;78.77
10460;BME280;54412;51.206;6.888;2022-11-15T07:30:28;100187.31;;;12.84;78.87
10460;BME280;54412;51.206;6.888;2022-11-15T07:33:00;100190.19;;;12.94;78.78
10460;BME280;54412;51.206;6.888;2022-11-15T07:35:27;100194.94;;;12.89;78.56
10460;BME280;54412;51.206;6.888;2022-11-15T07:37:59;100188.50;;;12.93;78.31
10460;BME280;54412;51.206;6.888;2022-11-15T07:40:32;100189.75;;;12.87;78.76
10460;BME280;54412;51.206;6.888;2022-11-15T07:43:03;100202.97;;;12.87;78.77
10460;BME280;54412;51.206;6.888;2022-11-15T07:45:30;100206.00;;;12.81;79.18
10460;BME280;54412;51.206;6.888;2022-11-15T07:47:56;100204.00;;;12.85;78.97
10460;BME280;54412;51.206;6.888;2022-11-15T07:50:23;100196.19;;;12.83;78.35
10460;BME280;54412;51.206;6.888;2022-11-15T07:52:58;100204.75;;;12.87;78.22
10460;BME280;54412;51.206;6.888;2022-11-15T07:55:26;100193.69;;;12.94;77.74
10460;BME280;54412;51.206;6.888;2022-11-15T07:58:00;100195.38;;;12.95;77.19
10460;BME280;54412;51.206;6.888;2022-11-15T08:00:26;100200.72;;;13.08;76.42
10460;BME280;54412;51.206;6.888;2022-11-15T08:02:51;100193.00;;;13.05;76.51
10460;BME280;54412;51.206;6.888;2022-11-15T08:05:17;100201.69;;;13.07;76.58
10460;BME280;54412;51.206;6.888;2022-11-15T08:07:43;100189.94;;;13.11;75.96
10460;BME280;54412;51.206;6.888;2022-11-15T08:10:08;100203.50;;;13.19;75.57
10460;BME280;54412;51.206;6.888;2022-11-15T08:12:34;100203.44;;;13.20;74.95
10460;BME280;54412;51.206;6.888;2022-11-15T08:15:00;100209.13;;;13.14;74.94
10460;BME280;54412;51.206;6.888;2022-11-15T08:17:26;100206.16;;;13.19;75.13
10460;BME280;54412;51.206;6.888;2022-11-15T08:19:52;100204.44;;;13.05;75.51
10460;BME280;54412;51.206;6.888;2022-11-15T08:22:17;100197.53;;;13.03;75.56
10460;BME280;54412;51.206;6.888;2022-11-15T08:24:44;100200.81;;;13.06;75.17
10460;BME280;54412;51.206;6.888;2022-11-15T08:27:10;100199.34;;;13.02;75.34
10460;BME280;54412;51.206;6.888;2022-11-15T08:29:44;100214.16;;;13.05;75.25
10460;BME280;54412;51.206;6.888;2022-11-15T08:32:11;100200.94;;;13.05;74.84
10460;BME280;54412;51.206;6.888;2022-11-15T08:34:38;100196.50;;;13.05;74.38
10460;BME280;54412;51.206;6.888;2022-11-15T08:37:04;100199.69;;;13.10;74.18
10460;BME280;54412;51.206;6.888;2022-11-15T08:39:30;100194.09;;;13.15;73.97
10460;BME280;54412;51.206;6.888;2022-11-15T08:41:56;100198.03;;;13.34;72.97
10460;BME280;54412;51.206;6.888;2022-11-15T08:44:22;100194.53;;;13.34;72.37
10460;BME280;54412;51.206;6.888;2022-11-15T08:46:50;100191.25;;;13.43;72.14
10460;BME280;54412;51.206;6.888;2022-11-15T08:49:16;100193.78;;;13.44;71.36
10460;BME280;54412;51.206;6.888;2022-11-15T08:51:42;100186.06;;;13.41;71.16
10460;BME280;54412;51.206;6.888;2022-11-15T08:54:07;100179.69;;;13.44;71.06
10460;BME280;54412;51.206;6.888;2022-11-15T08:56:33;100177.03;;;13.56;71.11
10460;BME280;54412;51.206;6.888;2022-11-15T08:58:59;100181.06;;;13.75;70.79
10460;BME280;54412;51.206;6.888;2022-11-15T09:01:24;100180.03;;;13.77;70.10
10460;BME280;54412;51.206;6.888;2022-11-15T09:03:50;100177.22;;;13.91;69.95
10460;BME280;54412;51.206;6.888;2022-11-15T09:06:16;100164.34;;;13.74;70.73
10460;BME280;54412;51.206;6.888;2022-11-15T09:08:42;100161.56;;;13.88;70.20
10460;BME280;54412;51.206;6.888;2022-11-15T09:11:09;100168.53;;;13.89;69.89
10460;BME280;54412;51.206;6.888;2022-11-15T09:13:36;100166.72;;;14.02;69.48
10460;BME280;54412;51.206;6.888;2022-11-15T09:16:04;100165.75;;;14.03;68.82
10460;BME280;54412;51.206;6.888;2022-11-15T09:18:30;100169.13;;;14.18;68.83
10460;BME280;54412;51.206;6.888;2022-11-15T09:20:58;100169.69;;;14.46;68.44
10460;BME280;54412;51.206;6.888;2022-11-15T09:23:25;100168.25;;;14.42;68.26
10460;BME280;54412;51.206;6.888;2022-11-15T09:25:51;100183.63;;;14.25;67.99
10460;BME280;54412;51.206;6.888;2022-11-15T09:28:17;100167.50;;;14.40;67.73
10460;BME280;54412;51.206;6.888;2022-11-15T09:30:43;100162.56;;;14.47;67.87
10460;BME280;54412;51.206;6.888;2022-11-15T09:33:12;100170.84;;;14.55;66.19
10460;BME280;54412;51.206;6.888;2022-11-15T09:35:38;100170.16;;;14.40;66.00
10460;BME280;54412;51.206;6.888;2022-11-15T09:38:04;100172.19;;;14.60;65.33
10460;BME280;54412;51.206;6.888;2022-11-15T09:40:32;100167.09;;;14.57;64.65
10460;BME280;54412;51.206;6.888;2022-11-15T09:49:24;100164.25;;;14.72;63.03
10460;BME280;54412;51.206;6.888;2022-11-15T09:51:32;100141.97;;;14.74;63.41
10460;BME280;54412;51.206;6.888;2022-11-15T09:54:11;100143.47;;;14.89;62.46
10460;BME280;54412;51.206;6.888;2022-11-15T09:56:41;100135.34;;;14.80;62.14
10460;BME280;54412;51.206;6.888;2022-11-15T10:04:46;100117.56;;;15.04;59.55
10460;BME280;54412;51.206;6.888;2022-11-15T10:07:24;100116.22;;;14.98;58.89
10460;BME280;54412;51.206;6.888;2022-11-15T10:10:20;100118.19;;;15.07;58.19
10460;BME280;54412;51.206;6.888;2022-11-15T10:12:51;100125.03;;;15.44;57.15
10460;BME280;54412;51.206;6.888;2022-11-15T10:15:19;100111.44;;;15.36;56.89
10460;BME280;54412;51.206;6.888;2022-11-15T10:18:08;100104.66;;;15.10;56.29
10460;BME280;54412;51.206;6.888;2022-11-15T10:20:50;100098.22;;;14.91;56.76
10460;BME280;54412;51.206;6.888;2022-11-15T10:23:21;100094.16;;;15.31;56.71
10460;BME280;54412;51.206;6.888;2022-11-15T10:25:53;100098.34;;;15.46;55.38
10460;BME280;54412;51.206;6.888;2022-11-15T10:28:29;100095.63;;;15.24;55.18
10460;BME280;54412;51.206;6.888;2022-11-15T10:30:58;100102.06;;;15.54;55.24
10460;BME280;54412;51.206;6.888;2022-11-15T10:33:37;100082.47;;;15.89;55.00
10460;BME280;54412;51.206;6.888;2022-11-15T10:46:42;100075.91;;;16.15;53.35
10460;BME280;54412;51.206;6.888;2022-11-15T10:49:17;100071.28;;;16.28;53.78
10460;BME280;54412;51.206;6.888;2022-11-15T10:51:49;100074.63;;;16.30;52.71
10460;BME280;54412;51.206;6.888;2022-11-15T10:57:29;100077.53;;;15.84;51.04
10460;BME280;54412;51.206;6.888;2022-11-15T11:00:13;100057.28;;;15.61;51.43
10460;BME280;54412;51.206;6.888;2022-11-15T11:03:06;100062.47;;;16.16;50.71
10460;BME280;54412;51.206;6.888;2022-11-15T11:05:40;100048.00;;;16.09;50.72
10460;BME280;54412;51.206;6.888;2022-11-15T11:10:38;100044.72;;;16.48;49.24
10460;BME280;54412;51.206;6.888;2022-11-15T11:13:26;100040.94;;;16.62;48.53
10460;BME280;54412;51.206;6.888;2022-11-15T11:19:28;100046.94;;;16.64;46.70
10460;BME280;54412;51.206;6.888;2022-11-15T11:22:18;100048.13;;;16.92;45.71
10460;BME280;54412;51.206;6.888;2022-11-15T11:33:25;100037.22;;;16.74;45.71
10460;BME280;54412;51.206;6.888;2022-11-15T11:36:25;100027.47;;;17.05;44.70
10460;BME280;54412;51.206;6.888;2022-11-15T11:41:59;100026.09;;;17.40;43.77
10460;BME280;54412;51.206;6.888;2022-11-15T11:48:12;100012.41;;;16.73;44.10
10460;BME280;54412;51.206;6.888;2022-11-15T11:50:42;100020.59;;;16.82;44.90
10460;BME280;54412;51.206;6.888;2022-11-15T11:53:27;100008.59;;;16.35;44.84
10460;BME280;54412;51.206;6.888;2022-11-15T11:56:05;100022.47;;;16.49;44.98
10460;BME280;54412;51.206;6.888;2022-11-15T11:58:41;100021.47;;;16.19;45.53
10460;BME280;54412;51.206;6.888;2022-11-15T12:03:44;100016.84;;;15.89;45.46
10460;BME280;54412;51.206;6.888;2022-11-15T12:08:58;100009.25;;;16.16;45.25
10460;BME280;54412;51.206;6.888;2022-11-15T12:11:56;100000.59;;;16.66;45.23
10460;BME280;54412;51.206;6.888;2022-11-15T12:14:55;99982.19;;;16.84;44.44
10460;BME280;54412;51.206;6.888;2022-11-15T12:17:29;99983.00;;;17.05;43.90
10460;BME280;54412;51.206;6.888;2022-11-15T12:20:03;99971.56;;;17.24;43.70
10460;BME280;54412;51.206;6.888;2022-11-15T12:22:43;99968.81;;;17.35;43.50
10460;BME280;54412;51.206;6.888;2022-11-15T12:25:35;99960.28;;;17.01;43.86
10460;BME280;54412;51.206;6.888;2022-11-15T12:28:27;99954.25;;;16.79;44.40
10460;BME280;54412;51.206;6.888;2022-11-15T12:31:06;99949.72;;;16.69;45.33
10460;BME280;54412;51.206;6.888;2022-11-15T12:33:41;99945.97;;;16.51;45.39
10460;BME280;54412;51.206;6.888;2022-11-15T12:36:32;99944.19;;;16.41;46.19
10460;BME280;54412;51.206;6.888;2022-11-15T12:39:11;99940.25;;;16.56;46.11
10460;BME280;54412;51.206;6.888;2022-11-15T12:41:40;99937.09;;;16.30;46.73
10460;BME280;54412;51.206;6.888;2022-11-15T12:59:57;99895.38;;;17.51;45.48
10460;BME280;54412;51.206;6.888;2022-11-15T13:02:39;99890.31;;;17.58;44.39
10460;BME280;54412;51.206;6.888;2022-11-15T13:15:37;99862.97;;;17.07;46.10
10460;BME280;54412;51.206;6.888;2022-11-15T13:18:39;99858.56;;;16.87;46.76
10460;BME280;54412;51.206;6.888;2022-11-15T13:21:23;99859.19;;;16.69;47.02
10460;BME280;54412;51.206;6.888;2022-11-15T13:24:16;99854.06;;;16.47;48.07
10460;BME280;54412;51.206;6.888;2022-11-15T13:26:42;99850.41;;;16.28;48.51
10460;BME280;54412;51.206;6.888;2022-11-15T13:29:17;99854.09;;;16.16;48.90
10460;BME280;54412;51.206;6.888;2022-11-15T13:31:44;99848.59;;;16.08;49.46
10460;BME280;54412;51.206;6.888;2022-11-15T13:34:32;99843.53;;;16.05;49.82
10460;BME280;54412;51.206;6.888;2022-11-15T13:36:59;99841.84;;;16.04;49.93
10460;BME280;54412;51.206;6.888;2022-11-15T13:39:34;99836.19;;;15.77;50.08
10460;BME280;54412;51.206;6.888;2022-11-15T13:42:03;99832.44;;;16.00;49.83
10460;BME280;54412;51.206;6.888;2022-11-15T13:44:32;99831.94;;;16.06;49.82
10460;BME280;54412;51.206;6.888;2022-11-15T13:47:15;99824.97;;;15.73;50.75
10460;BME280;54412;51.206;6.888;2022-11-15T13:49:42;99816.38;;;15.81;51.11
10460;BME280;54412;51.206;6.888;2022-11-15T13:52:15;99817.22;;;15.81;51.08
10460;BME280;54412;51.206;6.888;2022-11-15T13:55:16;99813.31;;;15.85;51.27
10460;BME280;54412;51.206;6.888;2022-11-15T13:57:58;99814.72;;;15.89;51.82
10460;BME280;54412;51.206;6.888;2022-11-15T14:02:57;99798.44;;;15.41;53.81
10460;BME280;54412;51.206;6.888;2022-11-15T14:05:24;99796.81;;;15.50;53.92
10460;BME280;54412;51.206;6.888;2022-11-15T14:08:21;99778.22;;;15.39;54.54
10460;BME280;54412;51.206;6.888;2022-11-15T14:10:48;99776.28;;;15.52;54.73
10460;BME280;54412;51.206;6.888;2022-11-15T14:13:31;99778.72;;;15.44;54.89
10460;BME280;54412;51.206;6.888;2022-11-15T14:16:20;99769.38;;;15.18;55.67
10460;BME280;54412;51.206;6.888;2022-11-15T14:18:52;99776.06;;;15.33;55.59
10460;BME280;54412;51.206;6.888;2022-11-15T14:21:19;99772.38;;;15.24;55.73
10460;BME280;54412;51.206;6.888;2022-11-15T14:23:46;99763.38;;;15.05;56.55
10460;BME280;54412;51.206;6.888;2022-11-15T14:26:34;99765.72;;;14.98;56.75
10460;BME280;54412;51.206;6.888;2022-11-15T14:29:37;99760.16;;;14.90;56.86
10460;BME280;54412;51.206;6.888;2022-11-15T14:32:16;99744.50;;;14.87;57.19
10460;BME280;54412;51.206;6.888;2022-11-15T14:34:42;99749.06;;;14.96;57.09
10460;BME280;54412;51.206;6.888;2022-11-15T14:37:31;99740.78;;;14.79;57.62
10460;BME280;54412;51.206;6.888;2022-11-15T14:39:59;99730.50;;;14.85;57.39
10460;BME280;54412;51.206;6.888;2022-11-15T14:42:25;99724.94;;;14.88;57.46
10460;BME280;54412;51.206;6.888;2022-11-15T14:44:51;99731.94;;;14.89;57.74
10460;BME280;54412;51.206;6.888;2022-11-15T14:47:18;99726.09;;;14.95;57.64
10460;BME280;54412;51.206;6.888;2022-11-15T14:49:44;99719.63;;;14.88;57.73
10460;BME280;54412;51.206;6.888;2022-11-15T14:52:28;99724.31;;;14.96;57.57